Takoradi, Takoradi Airport (DGTK)

NameTakoradi Airport
CityTakoradi
CountryGhana
ICAODGTK
IATATKD
Altitude6 m
CoordinatesGoogle Map
Live Air TrafficLiveATC.net
METARDGTK 301800Z 00000KT 9999 SCT011 26/23 Q1011 NOSIG
2019-10-30 18:00:00 Wind: North (0°) 0 m/s - Visibility: > 10000 m - Temperature: 26 °C - Dew point: 23 °C - Humidity: 83.6% - Pressure: 1011 hPa

Sorry, no flights used the airport in this database.